DW9750 Weather Reports


Display with metric or nautical units.
time (UTC)temp
F
wind
direction
speed
MPH
gust
MPH
rain 1hr
in
rain 24hr
in
rain mn
in
humidity
%
barometer
mb
20220529123014 72 189 2.0 8.0 0.00 0.00 0.00 83 1005.9
20220529121520 71 160 1.0 4.0 0.00 0.00 0.00 82 1005.9
20220529120012 71 113 0.0 3.0 0.00 0.00 0.00 82 1005.8
20220529114512 71 93 0.0 4.0 0.00 0.00 0.00 83 1005.6
20220529113011 71 254 0.0 6.0 0.00 0.00 0.00 83 1005.7
20220529111510 71 98 1.0 8.0 0.00 0.00 0.00 83 1005.7
20220529110010 71 296 2.0 10.0 0.00 0.00 0.00 83 1005.8
20220529104520 71 130 0.0 6.0 0.00 0.00 0.00 83 1005.8
20220529103008 71 136 0.0 4.0 0.00 0.00 0.00 83 1005.9
20220529101507 72 139 0.0 5.0 0.00 0.00 0.00 83 1005.9
20220529100008 71 110 1.0 7.0 0.00 0.00 0.00 82 1006.0
20220529094512 71 134 0.0 5.0 0.00 0.00 0.00 80 1005.9
20220529093005 70 103 0.0 3.0 0.00 0.00 0.00 76 1005.7
20220529091507 70 247 0.0 0.0 0.00 0.00 0.00 77 1005.6
20220529090003 71 247 0.0 1.0 0.00 0.00 0.00 76 1005.4
20220529084606 71 200 0.0 2.0 0.00 0.00 0.00 76 1005.2
20220529083056 72 164 0.0 0.0 0.00 0.00 0.00 77 1005.2
20220529081557 73 164 0.0 1.0 0.00 0.00 0.00 79 1005.5
20220529074555 75 102 0.0 6.0 0.00 0.00 0.00 81 1005.8
20220529073045 75 101 1.0 4.0 0.00 0.00 0.00 81 1005.9
20220529071542 75 78 0.0 3.0 0.00 0.00 0.00 81 1005.9
20220529070040 75 98 2.0 8.0 0.00 0.00 0.00 81 1006.1
20220529064537 76 89 1.0 4.0 0.00 0.00 0.00 82 1006.3
20220529063034 76 106 1.0 6.0 0.00 0.00 0.00 82 1006.5
20220529061532 77 171 1.0 6.0 0.00 0.00 0.00 82 1006.6
20220529060035 77 120 1.0 6.0 0.00 0.00 0.00 81 1006.8
20220529054526 78 115 1.0 9.0 0.00 0.00 0.00 81 1006.9
20220529053030 79 93 1.0 7.0 0.00 0.00 0.00 80 1007.1
20220529051525 79 84 2.0 6.0 0.00 0.00 0.00 79 1007.0
20220529050016 80 159 2.0 8.0 0.00 0.00 0.00 77 1006.9
20220529044531 81 91 4.0 8.0 0.00 0.00 0.00 76 1006.8
20220529043015 81 77 2.0 9.0 0.00 0.00 0.00 75 1006.8
20220529041514 81 114 3.0 12.0 0.00 0.00 0.00 71 1006.6
20220529040013 81 102 0.0 7.0 0.00 0.00 0.00 60 1006.3
20220529034520 80 86 0.0 4.0 0.00 0.00 0.00 53 1006.2
20220529033016 81 100 0.0 5.0 0.00 0.00 0.00 50 1006.1
20220529031513 80 116 0.0 2.0 0.00 0.00 0.00 48 1006.0
20220529030010 81 120 0.0 0.0 0.00 0.00 0.00 46 1005.9
20220529024515 81 120 0.0 1.0 0.00 0.00 0.00 45 1005.8
20220529023009 82 120 0.0 1.0 0.00 0.00 0.00 44 1005.7
20220529021508 83 120 0.0 1.0 0.00 0.00 0.00 43 1005.5
20220529020008 85 120 0.0 2.0 0.00 0.00 0.00 40 1005.4
20220529014508 86 105 0.0 2.0 0.00 0.00 0.00 39 1005.3
20220529013009 87 108 0.0 4.0 0.00 0.00 0.00 38 1005.3
20220529011506 89 99 0.0 5.0 0.00 0.00 0.00 37 1005.4
20220529010009 90 129 1.0 6.0 0.00 0.00 0.00 36 1005.3
20220529004506 91 103 2.0 7.0 0.00 0.00 0.00 34 1005.3
20220529003004 92 115 3.0 12.0 0.00 0.00 0.00 33 1005.1
20220529001503 93 143 0.0 8.0 0.00 0.00 0.00 35 1005.0
20220529000005 94 133 3.0 8.0 0.00 0.00 0.00 33 1005.0
20220528234504 94 130 2.0 10.0 0.00 0.00 0.00 32 1005.1
20220528233114 94 108 5.0 16.0 0.00 0.00 0.00 33 1005.0
20220528231559 94 112 4.0 13.0 0.00 0.00 0.00 34 1005.2
20220528230109 95 147 3.0 11.0 0.00 0.00 0.00 33 1005.4
20220528224558 95 189 3.0 12.0 0.00 0.00 0.00 33 1005.5
20220528223053 95 146 4.0 12.0 0.00 0.00 0.00 32 1005.6
20220528221556 96 161 2.0 12.0 0.00 0.00 0.00 33 1005.8
20220528220050 96 181 4.0 15.0 0.00 0.00 0.00 32 1005.9
20220528214553 96 239 4.0 11.0 0.00 0.00 0.00 33 1006.0
20220528213047 96 229 3.0 11.0 0.00 0.00 0.00 33 1006.4
20220528211601 95 136 4.0 13.0 0.00 0.00 0.00 34 1006.8
20220528210040 95 169 3.0 14.0 0.00 0.00 0.00 36 1007.0
20220528204541 94 138 5.0 13.0 0.00 0.00 0.00 37 1007.3
20220528203037 94 131 5.0 12.0 0.00 0.00 0.00 37 1007.6
20220528201534 94 112 5.0 14.0 0.00 0.00 0.00 38 1008.0
20220528200034 94 215 4.0 9.0 0.00 0.00 0.00 38 1008.1
20220528194532 94 106 3.0 10.0 0.00 0.00 0.00 39 1008.3
20220528193049 92 81 2.0 14.0 0.00 0.00 0.00 43 1008.7
20220528191523 92 120 5.0 13.0 0.00 0.00 0.00 39 1008.9
20220528190022 92 74 7.0 20.0 0.00 0.00 0.00 43 1009.2
20220528184525 93 117 3.0 10.0 0.00 0.00 0.00 42 1009.4
20220528183017 92 247 4.0 10.0 0.00 0.00 0.00 42 1009.6
20220528181514 91 129 4.0 12.0 0.00 0.00 0.00 39 1010.0
20220528180012 92 277 2.0 10.0 0.00 0.00 0.00 46 1010.0
20220528174509 91 243 4.0 10.0 0.00 0.00 0.00 43 1010.4
20220528173007 90 206 3.0 10.0 0.00 0.00 0.00 47 1010.5
20220528171502 89 184 3.0 8.0 0.00 0.00 0.00 50 1010.7
20220528170102 88 225 2.0 11.0 0.00 0.00 0.00 51 1010.9
20220528164602 88 148 0.0 7.0 0.00 0.00 0.00 53 1011.0
20220528163056 86 274 1.0 7.0 0.00 0.00 0.00 57 1011.1
20220528161552 86 238 2.0 7.0 0.00 0.00 0.00 60 1011.0
20220528160059 85 239 3.0 8.0 0.00 0.00 0.00 61 1011.1
20220528154551 84 155 3.0 10.0 0.00 0.00 0.00 65 1011.2
20220528153045 83 253 3.0 9.0 0.00 0.00 0.00 66 1011.4
20220528151541 82 226 4.0 11.0 0.00 0.00 0.00 68 1011.5
20220528150039 81 185 5.0 10.0 0.00 0.00 0.00 70 1011.7
20220528144538 81 92 3.0 9.0 0.00 0.00 0.00 71 1011.7
20220528143040 81 276 1.0 9.0 0.00 0.00 0.00 72 1011.7
20220528141531 79 203 3.0 9.0 0.00 0.00 0.00 73 1011.4
20220528140028 78 222 4.0 9.0 0.00 0.00 0.00 76 1011.3
20220528134524 77 216 3.0 7.0 0.00 0.00 0.00 81 1011.2
20220528133026 77 150 2.0 8.0 0.00 0.00 0.00 81 1011.2
20220528131521 76 247 0.0 5.0 0.00 0.00 0.00 82 1011.3
20220528130027 76 117 1.0 6.0 0.00 0.00 0.00 83 1011.2
20220528124518 75 206 0.0 6.0 0.00 0.00 0.00 83 1011.1